sensor_id;sensor_type;location;lat;lon;timestamp;pressure;altitude;pressure_sealevel;temperature;humidity
68489;BME280;55481;48.764;8.936;2023-03-20T00:00:58;97230;;;7.9;76
68489;BME280;55481;48.764;8.936;2023-03-20T00:03:29;97230;;;7.9;76
68489;BME280;55481;48.764;8.936;2023-03-20T00:06:00;97230;;;7.9;76
68489;BME280;55481;48.764;8.936;2023-03-20T00:08:30;97220;;;8;76
68489;BME280;55481;48.764;8.936;2023-03-20T00:11:01;97230;;;8.1;75.5
68489;BME280;55481;48.764;8.936;2023-03-20T00:13:32;97230;;;8.2;75.5
68489;BME280;55481;48.764;8.936;2023-03-20T00:16:02;97220;;;8.2;75.5
68489;BME280;55481;48.764;8.936;2023-03-20T00:18:40;97230;;;8.2;75.5
68489;BME280;55481;48.764;8.936;2023-03-20T00:21:14;97230;;;8.1;76
68489;BME280;55481;48.764;8.936;2023-03-20T00:23:42;97230;;;8.1;75.5
68489;BME280;55481;48.764;8.936;2023-03-20T00:26:19;97230;;;8.2;75.5
68489;BME280;55481;48.764;8.936;2023-03-20T00:28:38;97230;;;8.2;75.5
68489;BME280;55481;48.764;8.936;2023-03-20T00:31:19;97230;;;8.1;75.5
68489;BME280;55481;48.764;8.936;2023-03-20T00:33:39;97230;;;8;76
68489;BME280;55481;48.764;8.936;2023-03-20T00:36:10;97230;;;8.1;76
68489;BME280;55481;48.764;8.936;2023-03-20T00:38:41;97240;;;8;76
68489;BME280;55481;48.764;8.936;2023-03-20T00:41:17;97240;;;7.9;76
68489;BME280;55481;48.764;8.936;2023-03-20T00:43:42;97240;;;7.9;76
68489;BME280;55481;48.764;8.936;2023-03-20T00:46:13;97240;;;8;76
68489;BME280;55481;48.764;8.936;2023-03-20T00:53:58;97230;;;8.1;76
68489;BME280;55481;48.764;8.936;2023-03-20T00:58:52;97230;;;8.1;76
68489;BME280;55481;48.764;8.936;2023-03-20T01:01:23;97230;;;8.1;76
68489;BME280;55481;48.764;8.936;2023-03-20T01:03:54;97230;;;8.1;76
68489;BME280;55481;48.764;8.936;2023-03-20T01:08:49;97240;;;8.1;76
68489;BME280;55481;48.764;8.936;2023-03-20T01:11:20;97230;;;8.1;76
68489;BME280;55481;48.764;8.936;2023-03-20T01:13:50;97230;;;8.1;76
68489;BME280;55481;48.764;8.936;2023-03-20T01:16:22;97230;;;8.1;76
68489;BME280;55481;48.764;8.936;2023-03-20T01:21:23;97230;;;8.1;76
68489;BME280;55481;48.764;8.936;2023-03-20T01:23:53;97240;;;8.1;76
68489;BME280;55481;48.764;8.936;2023-03-20T01:26:35;97240;;;8.1;76
68489;BME280;55481;48.764;8.936;2023-03-20T01:29:03;97240;;;8.1;75.5
68489;BME280;55481;48.764;8.936;2023-03-20T01:31:33;97240;;;8;76
68489;BME280;55481;48.764;8.936;2023-03-20T01:36:27;97250;;;8;76
68489;BME280;55481;48.764;8.936;2023-03-20T01:38:58;97250;;;7.9;76
68489;BME280;55481;48.764;8.936;2023-03-20T01:49:06;97250;;;8;76
68489;BME280;55481;48.764;8.936;2023-03-20T01:51:32;97250;;;8;76
68489;BME280;55481;48.764;8.936;2023-03-20T01:54:05;97250;;;8;76
68489;BME280;55481;48.764;8.936;2023-03-20T01:57:03;97250;;;8;76.5
68489;BME280;55481;48.764;8.936;2023-03-20T01:59:20;97250;;;8.1;76
68489;BME280;55481;48.764;8.936;2023-03-20T02:01:47;97250;;;7.9;76.5
68489;BME280;55481;48.764;8.936;2023-03-20T02:06:41;97260;;;8;76.5
68489;BME280;55481;48.764;8.936;2023-03-20T02:09:12;97260;;;8.1;76
68489;BME280;55481;48.764;8.936;2023-03-20T02:11:49;97260;;;8.2;75.5
68489;BME280;55481;48.764;8.936;2023-03-20T02:14:21;97260;;;8;76
68489;BME280;55481;48.764;8.936;2023-03-20T02:22:00;97270;;;7.6;77
68489;BME280;55481;48.764;8.936;2023-03-20T02:24:30;97270;;;7.6;77
68489;BME280;55481;48.764;8.936;2023-03-20T02:27:00;97270;;;7.7;77
68489;BME280;55481;48.764;8.936;2023-03-20T02:29:45;97270;;;7.7;76.5
68489;BME280;55481;48.764;8.936;2023-03-20T02:34:29;97260;;;7.9;76
68489;BME280;55481;48.764;8.936;2023-03-20T02:36:54;97270;;;7.9;76
68489;BME280;55481;48.764;8.936;2023-03-20T02:39:29;97270;;;8;76
68489;BME280;55481;48.764;8.936;2023-03-20T02:47:52;97260;;;8;76
68489;BME280;55481;48.764;8.936;2023-03-20T02:49:20;97260;;;7.9;76.5
68489;BME280;55481;48.764;8.936;2023-03-20T02:51:48;97260;;;7.9;76.5
68489;BME280;55481;48.764;8.936;2023-03-20T02:56:51;97260;;;7.9;76.5
68489;BME280;55481;48.764;8.936;2023-03-20T02:59:21;97270;;;8;76
68489;BME280;55481;48.764;8.936;2023-03-20T03:12:00;97280;;;8.1;76
68489;BME280;55481;48.764;8.936;2023-03-20T03:14:34;97280;;;8.1;76
68489;BME280;55481;48.764;8.936;2023-03-20T03:17:00;97280;;;8.1;76
68489;BME280;55481;48.764;8.936;2023-03-20T03:19:30;97280;;;8.1;76
68489;BME280;55481;48.764;8.936;2023-03-20T03:22:02;97280;;;8.1;76
68489;BME280;55481;48.764;8.936;2023-03-20T03:26:57;97280;;;8.2;76
68489;BME280;55481;48.764;8.936;2023-03-20T03:29:29;97290;;;8.2;76
68489;BME280;55481;48.764;8.936;2023-03-20T03:34:29;97290;;;8.1;76.5
68489;BME280;55481;48.764;8.936;2023-03-20T03:37:05;97290;;;8;76.5
68489;BME280;55481;48.764;8.936;2023-03-20T03:39:38;97290;;;8;76.5
68489;BME280;55481;48.764;8.936;2023-03-20T03:42:05;97290;;;8.1;76
68489;BME280;55481;48.764;8.936;2023-03-20T03:44:40;97290;;;8;76.5
68489;BME280;55481;48.764;8.936;2023-03-20T03:47:05;97290;;;8;76.5
68489;BME280;55481;48.764;8.936;2023-03-20T03:52:12;97290;;;8;76.5
68489;BME280;55481;48.764;8.936;2023-03-20T03:57:13;97300;;;7.8;76.5
68489;BME280;55481;48.764;8.936;2023-03-20T03:59:44;97300;;;7.8;77
68489;BME280;55481;48.764;8.936;2023-03-20T04:02:15;97300;;;7.8;77
68489;BME280;55481;48.764;8.936;2023-03-20T04:14:54;97300;;;7.8;76.5
68489;BME280;55481;48.764;8.936;2023-03-20T04:17:24;97300;;;7.8;77
68489;BME280;55481;48.764;8.936;2023-03-20T04:22:18;97300;;;7.8;76.5
68489;BME280;55481;48.764;8.936;2023-03-20T04:24:49;97290;;;7.7;76.5
68489;BME280;55481;48.764;8.936;2023-03-20T04:27:20;97280;;;7.7;76.5
68489;BME280;55481;48.764;8.936;2023-03-20T04:34:45;97280;;;7.2;77.5
68489;BME280;55481;48.764;8.936;2023-03-20T04:37:17;97290;;;7.3;77
68489;BME280;55481;48.764;8.936;2023-03-20T04:39:47;97290;;;7.2;77
68489;BME280;55481;48.764;8.936;2023-03-20T04:42:17;97290;;;7.2;77
68489;BME280;55481;48.764;8.936;2023-03-20T04:44:48;97290;;;7.2;77
68489;BME280;55481;48.764;8.936;2023-03-20T04:47:19;97290;;;7.3;77
68489;BME280;55481;48.764;8.936;2023-03-20T04:49:50;97290;;;7.3;77
68489;BME280;55481;48.764;8.936;2023-03-20T04:52:20;97300;;;7.3;77
68489;BME280;55481;48.764;8.936;2023-03-20T04:54:51;97300;;;7.3;77
68489;BME280;55481;48.764;8.936;2023-03-20T05:10:02;97310;;;7.6;76
68489;BME280;55481;48.764;8.936;2023-03-20T05:12:33;97320;;;7.7;76
68489;BME280;55481;48.764;8.936;2023-03-20T05:15:11;97320;;;7.7;76
68489;BME280;55481;48.764;8.936;2023-03-20T05:19:59;97320;;;7.7;76
68489;BME280;55481;48.764;8.936;2023-03-20T05:22:29;97320;;;7.7;76
68489;BME280;55481;48.764;8.936;2023-03-20T05:25:01;97320;;;7.8;76
68489;BME280;55481;48.764;8.936;2023-03-20T05:32:33;97310;;;7.7;76.5
68489;BME280;55481;48.764;8.936;2023-03-20T05:35:03;97310;;;7.6;76.5
68489;BME280;55481;48.764;8.936;2023-03-20T05:40:17;97310;;;7.6;76.5
68489;BME280;55481;48.764;8.936;2023-03-20T05:42:48;97320;;;7.8;76
68489;BME280;55481;48.764;8.936;2023-03-20T05:47:41;97330;;;7.8;76
68489;BME280;55481;48.764;8.936;2023-03-20T05:50:12;97330;;;7.9;76
68489;BME280;55481;48.764;8.936;2023-03-20T05:52:47;97330;;;7.8;76
68489;BME280;55481;48.764;8.936;2023-03-20T05:55:14;97340;;;7.9;76
68489;BME280;55481;48.764;8.936;2023-03-20T05:57:45;97340;;;7.9;76
68489;BME280;55481;48.764;8.936;2023-03-20T06:00:22;97340;;;7.8;76
68489;BME280;55481;48.764;8.936;2023-03-20T06:05:19;97340;;;7.9;76
68489;BME280;55481;48.764;8.936;2023-03-20T06:07:48;97340;;;8;76
68489;BME280;55481;48.764;8.936;2023-03-20T06:10:19;97340;;;8.1;75.5
68489;BME280;55481;48.764;8.936;2023-03-20T06:12:51;97340;;;8.1;75.5
68489;BME280;55481;48.764;8.936;2023-03-20T06:15:22;97340;;;8.1;75.5
68489;BME280;55481;48.764;8.936;2023-03-20T06:17:53;97350;;;8.1;76
68489;BME280;55481;48.764;8.936;2023-03-20T06:20:32;97340;;;8.2;75.5
68489;BME280;55481;48.764;8.936;2023-03-20T06:25:26;97340;;;8.2;75.5
68489;BME280;55481;48.764;8.936;2023-03-20T06:27:57;97340;;;8.3;75.5
68489;BME280;55481;48.764;8.936;2023-03-20T06:33:05;97330;;;8.6;75
68489;BME280;55481;48.764;8.936;2023-03-20T06:35:35;97330;;;8.7;75
68489;BME280;55481;48.764;8.936;2023-03-20T06:37:59;97320;;;8.8;74.5
68489;BME280;55481;48.764;8.936;2023-03-20T06:40:39;97330;;;9.1;74
68489;BME280;55481;48.764;8.936;2023-03-20T06:43:08;97330;;;9.5;73.5
68489;BME280;55481;48.764;8.936;2023-03-20T06:45:32;97330;;;9.6;73.5
68489;BME280;55481;48.764;8.936;2023-03-20T06:50:47;97320;;;9.3;74.5
68489;BME280;55481;48.764;8.936;2023-03-20T06:53:23;97330;;;9.4;74.5
68489;BME280;55481;48.764;8.936;2023-03-20T06:55:40;97330;;;9.5;74
68489;BME280;55481;48.764;8.936;2023-03-20T07:00:37;97340;;;9.8;74
68489;BME280;55481;48.764;8.936;2023-03-20T07:05:36;97350;;;9.8;74
68489;BME280;55481;48.764;8.936;2023-03-20T07:10:44;97360;;;10.2;73.5
68489;BME280;55481;48.764;8.936;2023-03-20T07:13:14;97360;;;10.1;73.5
68489;BME280;55481;48.764;8.936;2023-03-20T07:18:10;97370;;;9.7;75
68489;BME280;55481;48.764;8.936;2023-03-20T07:20:42;97370;;;9.5;75.5
68489;BME280;55481;48.764;8.936;2023-03-20T07:23:11;97370;;;9.4;75.5
68489;BME280;55481;48.764;8.936;2023-03-20T07:28:06;97360;;;9.6;75
68489;BME280;55481;48.764;8.936;2023-03-20T07:30:36;97360;;;9.5;75
68489;BME280;55481;48.764;8.936;2023-03-20T07:33:07;97360;;;9.7;74.5
68489;BME280;55481;48.764;8.936;2023-03-20T07:40:40;97360;;;10.5;73
68489;BME280;55481;48.764;8.936;2023-03-20T07:43:10;97370;;;10.3;73.5
68489;BME280;55481;48.764;8.936;2023-03-20T07:45:47;97370;;;10.4;73.5
68489;BME280;55481;48.764;8.936;2023-03-20T07:48:13;97370;;;10.3;73.5
68489;BME280;55481;48.764;8.936;2023-03-20T07:50:56;97370;;;10.2;73.5
68489;BME280;55481;48.764;8.936;2023-03-20T07:53:27;97370;;;10.1;74
68489;BME280;55481;48.764;8.936;2023-03-20T07:56:03;97370;;;10.1;74
68489;BME280;55481;48.764;8.936;2023-03-20T07:58:22;97370;;;10.4;74
68489;BME280;55481;48.764;8.936;2023-03-20T08:00:55;97370;;;10.6;73
68489;BME280;55481;48.764;8.936;2023-03-20T08:10:50;97360;;;10.8;73
68489;BME280;55481;48.764;8.936;2023-03-20T08:13:21;97360;;;10.8;73.5
68489;BME280;55481;48.764;8.936;2023-03-20T08:15:52;97360;;;10.5;74
68489;BME280;55481;48.764;8.936;2023-03-20T08:18:23;97370;;;10.5;74
68489;BME280;55481;48.764;8.936;2023-03-20T08:23:24;97370;;;10.8;73.5
68489;BME280;55481;48.764;8.936;2023-03-20T08:25:55;97370;;;10.8;73.5
68489;BME280;55481;48.764;8.936;2023-03-20T08:28:25;97370;;;10.9;73.5
68489;BME280;55481;48.764;8.936;2023-03-20T08:31:07;97370;;;10.9;73.5
68489;BME280;55481;48.764;8.936;2023-03-20T08:33:34;97370;;;10.8;73.5
68489;BME280;55481;48.764;8.936;2023-03-20T08:36:07;97370;;;10.8;74
68489;BME280;55481;48.764;8.936;2023-03-20T08:38:43;97360;;;10.9;73.5
68489;BME280;55481;48.764;8.936;2023-03-20T08:46:15;97350;;;11.2;73
68489;BME280;55481;48.764;8.936;2023-03-20T08:48:45;97350;;;11.3;73
68489;BME280;55481;48.764;8.936;2023-03-20T08:51:15;97350;;;11.4;72.5
68489;BME280;55481;48.764;8.936;2023-03-20T08:56:09;97360;;;12;71.5
68489;BME280;55481;48.764;8.936;2023-03-20T08:58:47;97360;;;12;71.5
68489;BME280;55481;48.764;8.936;2023-03-20T09:01:11;97360;;;11.7;72.5
68489;BME280;55481;48.764;8.936;2023-03-20T09:03:48;97360;;;11.8;72.5
68489;BME280;55481;48.764;8.936;2023-03-20T09:11:22;97360;;;12.1;72
68489;BME280;55481;48.764;8.936;2023-03-20T09:13:52;97360;;;11.9;72.5
68489;BME280;55481;48.764;8.936;2023-03-20T09:16:24;97370;;;12;72.5
68489;BME280;55481;48.764;8.936;2023-03-20T09:18:52;97360;;;12.2;72
68489;BME280;55481;48.764;8.936;2023-03-20T09:26:17;97360;;;12.6;71.5
68489;BME280;55481;48.764;8.936;2023-03-20T09:28:48;97360;;;12.7;71
68489;BME280;55481;48.764;8.936;2023-03-20T09:31:25;97360;;;12.6;71
68489;BME280;55481;48.764;8.936;2023-03-20T09:33:50;97360;;;12.3;72
68489;BME280;55481;48.764;8.936;2023-03-20T09:36:23;97370;;;12.2;72
68489;BME280;55481;48.764;8.936;2023-03-20T09:38:52;97370;;;12.1;72.5
68489;BME280;55481;48.764;8.936;2023-03-20T09:41:23;97360;;;12;72.5
68489;BME280;55481;48.764;8.936;2023-03-20T09:51:42;97370;;;12;72.5
68489;BME280;55481;48.764;8.936;2023-03-20T09:56:28;97380;;;12.1;72.5
68489;BME280;55481;48.764;8.936;2023-03-20T10:01:42;97380;;;12.3;72
68489;BME280;55481;48.764;8.936;2023-03-20T10:04:06;97380;;;12.3;72
68489;BME280;55481;48.764;8.936;2023-03-20T10:09:00;97380;;;12.2;71.5
68489;BME280;55481;48.764;8.936;2023-03-20T10:14:05;97380;;;11.7;72.5
68489;BME280;55481;48.764;8.936;2023-03-20T10:19:13;97380;;;11.7;72.5
68489;BME280;55481;48.764;8.936;2023-03-20T10:24:27;97380;;;11.6;73
68489;BME280;55481;48.764;8.936;2023-03-20T10:26:42;97390;;;11.6;73
68489;BME280;55481;48.764;8.936;2023-03-20T10:31:42;97390;;;12;71.5
68489;BME280;55481;48.764;8.936;2023-03-20T10:34:16;97390;;;12.4;71
68489;BME280;55481;48.764;8.936;2023-03-20T10:36:53;97380;;;12.6;70
68489;BME280;55481;48.764;8.936;2023-03-20T10:39:30;97380;;;12.3;71
68489;BME280;55481;48.764;8.936;2023-03-20T10:41:48;97380;;;12.6;70.5
68489;BME280;55481;48.764;8.936;2023-03-20T10:44:15;97370;;;12.5;71
68489;BME280;55481;48.764;8.936;2023-03-20T10:49:13;97370;;;12.4;71.5
68489;BME280;55481;48.764;8.936;2023-03-20T10:51:45;97370;;;12.3;71.5
68489;BME280;55481;48.764;8.936;2023-03-20T10:59:26;97360;;;11.7;72.5
68489;BME280;55481;48.764;8.936;2023-03-20T11:01:48;97370;;;11.7;72.5
68489;BME280;55481;48.764;8.936;2023-03-20T11:04:12;97360;;;11.6;72.5
68489;BME280;55481;48.764;8.936;2023-03-20T11:07:46;97370;;;11.7;72.5
68489;BME280;55481;48.764;8.936;2023-03-20T11:11:52;97370;;;12.4;71
68489;BME280;55481;48.764;8.936;2023-03-20T11:19:23;97360;;;12.7;70.5
68489;BME280;55481;48.764;8.936;2023-03-20T11:21:55;97360;;;13.3;69
68489;BME280;55481;48.764;8.936;2023-03-20T11:24:25;97360;;;13.3;69
68489;BME280;55481;48.764;8.936;2023-03-20T11:26:54;97360;;;12.8;70.5
68489;BME280;55481;48.764;8.936;2023-03-20T11:31:47;97370;;;12.4;71
68489;BME280;55481;48.764;8.936;2023-03-20T11:34:32;97360;;;12.3;71.5
68489;BME280;55481;48.764;8.936;2023-03-20T11:36:57;97360;;;12.2;71.5
68489;BME280;55481;48.764;8.936;2023-03-20T11:39:28;97360;;;12.6;71
68489;BME280;55481;48.764;8.936;2023-03-20T11:41:46;97360;;;12.8;70
68489;BME280;55481;48.764;8.936;2023-03-20T11:44:23;97350;;;13.1;69.5
68489;BME280;55481;48.764;8.936;2023-03-20T11:47:04;97350;;;14.9;65.5
68489;BME280;55481;48.764;8.936;2023-03-20T11:49:19;97350;;;13.7;68
68489;BME280;55481;48.764;8.936;2023-03-20T11:54:20;97350;;;12.9;70.5
68489;BME280;55481;48.764;8.936;2023-03-20T12:04:35;97340;;;13;70
68489;BME280;55481;48.764;8.936;2023-03-20T12:09:31;97340;;;13.1;70
68489;BME280;55481;48.764;8.936;2023-03-20T12:12:10;97340;;;13.2;70
68489;BME280;55481;48.764;8.936;2023-03-20T12:14:37;97340;;;13.4;69
68489;BME280;55481;48.764;8.936;2023-03-20T12:19:39;97340;;;12.6;71
68489;BME280;55481;48.764;8.936;2023-03-20T12:22:15;97340;;;12.3;72
68489;BME280;55481;48.764;8.936;2023-03-20T12:24:37;97340;;;12.3;71.5
68489;BME280;55481;48.764;8.936;2023-03-20T12:27:10;97340;;;12.2;72
68489;BME280;55481;48.764;8.936;2023-03-20T12:29:37;97340;;;12.2;72
68489;BME280;55481;48.764;8.936;2023-03-20T12:32:16;97330;;;12.4;71
68489;BME280;55481;48.764;8.936;2023-03-20T12:37:01;97320;;;13;69.5
68489;BME280;55481;48.764;8.936;2023-03-20T12:39:38;97330;;;13.2;69
68489;BME280;55481;48.764;8.936;2023-03-20T12:42:12;97330;;;13.2;69
68489;BME280;55481;48.764;8.936;2023-03-20T12:44:35;97330;;;12.8;70
68489;BME280;55481;48.764;8.936;2023-03-20T12:49:43;97320;;;12.8;70
68489;BME280;55481;48.764;8.936;2023-03-20T12:59:43;97320;;;12.5;70.5
68489;BME280;55481;48.764;8.936;2023-03-20T13:02:12;97320;;;12.6;69.5
68489;BME280;55481;48.764;8.936;2023-03-20T13:07:17;97320;;;12.7;70
68489;BME280;55481;48.764;8.936;2023-03-20T13:09:53;97310;;;12.9;69.5
68489;BME280;55481;48.764;8.936;2023-03-20T13:14:46;97310;;;12.3;70.5
68489;BME280;55481;48.764;8.936;2023-03-20T13:17:16;97310;;;12.3;71
68489;BME280;55481;48.764;8.936;2023-03-20T13:20:17;97300;;;12.6;70
68489;BME280;55481;48.764;8.936;2023-03-20T13:27:33;97290;;;12.8;69.5
68489;BME280;55481;48.764;8.936;2023-03-20T13:29:49;97290;;;12.8;69.5
68489;BME280;55481;48.764;8.936;2023-03-20T13:32:28;97280;;;13;69
68489;BME280;55481;48.764;8.936;2023-03-20T13:37:48;97280;;;13.2;68
68489;BME280;55481;48.764;8.936;2023-03-20T13:42:28;97270;;;13.2;69
68489;BME280;55481;48.764;8.936;2023-03-20T13:45:02;97270;;;13.4;68.5
68489;BME280;55481;48.764;8.936;2023-03-20T13:47:27;97270;;;13.6;68.5
68489;BME280;55481;48.764;8.936;2023-03-20T13:50:02;97260;;;13.8;68
68489;BME280;55481;48.764;8.936;2023-03-20T13:52:38;97260;;;14;67.5
68489;BME280;55481;48.764;8.936;2023-03-20T13:55:15;97260;;;14.3;67
68489;BME280;55481;48.764;8.936;2023-03-20T13:57:53;97260;;;14.1;67
68489;BME280;55481;48.764;8.936;2023-03-20T14:02:39;97260;;;13.6;68
68489;BME280;55481;48.764;8.936;2023-03-20T14:05:03;97250;;;13.6;68
68489;BME280;55481;48.764;8.936;2023-03-20T14:09:55;97250;;;13.7;68
68489;BME280;55481;48.764;8.936;2023-03-20T14:12:26;97250;;;13.6;68.5
68489;BME280;55481;48.764;8.936;2023-03-20T14:20:09;97240;;;13.2;69
68489;BME280;55481;48.764;8.936;2023-03-20T14:22:33;97240;;;13.2;69
68489;BME280;55481;48.764;8.936;2023-03-20T14:25:04;97250;;;13;69.5
68489;BME280;55481;48.764;8.936;2023-03-20T14:27:34;97250;;;13;69.5
68489;BME280;55481;48.764;8.936;2023-03-20T14:30:36;97250;;;13;69
68489;BME280;55481;48.764;8.936;2023-03-20T14:32:50;97250;;;13.2;68.5
68489;BME280;55481;48.764;8.936;2023-03-20T14:35:25;97240;;;13.2;68.5
68489;BME280;55481;48.764;8.936;2023-03-20T14:37:36;97240;;;13.2;68.5
68489;BME280;55481;48.764;8.936;2023-03-20T14:47:45;97240;;;13;69
68489;BME280;55481;48.764;8.936;2023-03-20T14:52:58;97240;;;12.8;69
68489;BME280;55481;48.764;8.936;2023-03-20T14:57:47;97250;;;12.6;69.5
68489;BME280;55481;48.764;8.936;2023-03-20T15:02:51;97250;;;12.6;69.5
68489;BME280;55481;48.764;8.936;2023-03-20T15:05:21;97250;;;12.6;69
68489;BME280;55481;48.764;8.936;2023-03-20T15:12:47;97240;;;12.7;68.5
68489;BME280;55481;48.764;8.936;2023-03-20T15:15:24;97240;;;12.9;68
68489;BME280;55481;48.764;8.936;2023-03-20T15:17:50;97240;;;12.9;68
68489;BME280;55481;48.764;8.936;2023-03-20T15:20:19;97240;;;12.8;68.5
68489;BME280;55481;48.764;8.936;2023-03-20T15:25:19;97240;;;12.8;68.5
68489;BME280;55481;48.764;8.936;2023-03-20T15:28:04;97240;;;12.6;68.5
68489;BME280;55481;48.764;8.936;2023-03-20T15:30:27;97240;;;12.7;68.5
68489;BME280;55481;48.764;8.936;2023-03-20T15:32:58;97250;;;12.7;68.5
68489;BME280;55481;48.764;8.936;2023-03-20T15:35:22;97250;;;12.4;69
68489;BME280;55481;48.764;8.936;2023-03-20T15:40:30;97250;;;12.3;69
68489;BME280;55481;48.764;8.936;2023-03-20T15:42:58;97250;;;12.4;68.5
68489;BME280;55481;48.764;8.936;2023-03-20T15:45:28;97250;;;12.5;68.5
68489;BME280;55481;48.764;8.936;2023-03-20T15:48:00;97250;;;12.5;68.5
68489;BME280;55481;48.764;8.936;2023-03-20T15:53:04;97250;;;12.6;68
68489;BME280;55481;48.764;8.936;2023-03-20T15:55:34;97250;;;12.6;68
68489;BME280;55481;48.764;8.936;2023-03-20T15:58:05;97240;;;12.5;68.5
68489;BME280;55481;48.764;8.936;2023-03-20T16:05:31;97240;;;12.7;68
68489;BME280;55481;48.764;8.936;2023-03-20T16:08:21;97240;;;12.6;68
68489;BME280;55481;48.764;8.936;2023-03-20T16:10:33;97240;;;12.5;68.5
68489;BME280;55481;48.764;8.936;2023-03-20T16:13:05;97240;;;12.4;68.5
68489;BME280;55481;48.764;8.936;2023-03-20T16:18:13;97240;;;12.1;69
68489;BME280;55481;48.764;8.936;2023-03-20T16:20:46;97240;;;12.1;69
68489;BME280;55481;48.764;8.936;2023-03-20T16:23:15;97240;;;12.1;69
68489;BME280;55481;48.764;8.936;2023-03-20T16:25:44;97240;;;12;69
68489;BME280;55481;48.764;8.936;2023-03-20T16:28:21;97240;;;11.8;69
68489;BME280;55481;48.764;8.936;2023-03-20T16:30:51;97240;;;11.8;69
68489;BME280;55481;48.764;8.936;2023-03-20T16:35:47;97240;;;11.8;69
68489;BME280;55481;48.764;8.936;2023-03-20T16:38:24;97240;;;11.7;69
68489;BME280;55481;48.764;8.936;2023-03-20T16:40:47;97240;;;11.6;69.5
68489;BME280;55481;48.764;8.936;2023-03-20T16:43:13;97230;;;11.5;69.5
68489;BME280;55481;48.764;8.936;2023-03-20T16:45:43;97230;;;11.4;69.5
68489;BME280;55481;48.764;8.936;2023-03-20T16:48:29;97240;;;11.3;69.5
68489;BME280;55481;48.764;8.936;2023-03-20T16:50:44;97240;;;11.3;69.5
68489;BME280;55481;48.764;8.936;2023-03-20T16:58:18;97240;;;11;69.5
68489;BME280;55481;48.764;8.936;2023-03-20T17:00:48;97240;;;11;69.5
68489;BME280;55481;48.764;8.936;2023-03-20T17:03:45;97240;;;11;69.5
68489;BME280;55481;48.764;8.936;2023-03-20T17:08:40;97240;;;11;69
68489;BME280;55481;48.764;8.936;2023-03-20T17:11:03;97230;;;11;69
68489;BME280;55481;48.764;8.936;2023-03-20T17:15:55;97230;;;10.9;69
68489;BME280;55481;48.764;8.936;2023-03-20T17:18:27;97230;;;10.9;69
68489;BME280;55481;48.764;8.936;2023-03-20T17:20:58;97240;;;10.9;69
68489;BME280;55481;48.764;8.936;2023-03-20T17:28:49;97240;;;10.8;69
68489;BME280;55481;48.764;8.936;2023-03-20T17:31:12;97240;;;10.8;69
68489;BME280;55481;48.764;8.936;2023-03-20T17:36:00;97250;;;10.7;69
68489;BME280;55481;48.764;8.936;2023-03-20T17:38:31;97250;;;10.6;69.5
68489;BME280;55481;48.764;8.936;2023-03-20T17:41:04;97260;;;10.6;69.5
68489;BME280;55481;48.764;8.936;2023-03-20T17:43:26;97260;;;10.5;69.5
68489;BME280;55481;48.764;8.936;2023-03-20T17:53:29;97270;;;10.4;69
68489;BME280;55481;48.764;8.936;2023-03-20T17:55:59;97270;;;10.4;69.5
68489;BME280;55481;48.764;8.936;2023-03-20T17:58:30;97280;;;10.4;69
68489;BME280;55481;48.764;8.936;2023-03-20T18:03:38;97280;;;10.4;69
68489;BME280;55481;48.764;8.936;2023-03-20T18:06:14;97280;;;10.3;69
68489;BME280;55481;48.764;8.936;2023-03-20T18:08:40;97280;;;10.3;69
68489;BME280;55481;48.764;8.936;2023-03-20T18:11:04;97280;;;10.3;69
68489;BME280;55481;48.764;8.936;2023-03-20T18:18:36;97280;;;10.3;69
68489;BME280;55481;48.764;8.936;2023-03-20T18:21:08;97290;;;10.3;69
68489;BME280;55481;48.764;8.936;2023-03-20T18:23:38;97280;;;10.3;69
68489;BME280;55481;48.764;8.936;2023-03-20T18:26:13;97290;;;10.3;69
68489;BME280;55481;48.764;8.936;2023-03-20T18:28:47;97290;;;10.3;69
68489;BME280;55481;48.764;8.936;2023-03-20T18:31:17;97290;;;10.2;69
68489;BME280;55481;48.764;8.936;2023-03-20T18:33:49;97290;;;10.2;69.5
68489;BME280;55481;48.764;8.936;2023-03-20T18:36:15;97290;;;10.1;69.5
68489;BME280;55481;48.764;8.936;2023-03-20T18:46:17;97290;;;10;69.5
68489;BME280;55481;48.764;8.936;2023-03-20T18:48:46;97290;;;10;69.5
68489;BME280;55481;48.764;8.936;2023-03-20T18:51:16;97290;;;10;69.5
68489;BME280;55481;48.764;8.936;2023-03-20T18:56:25;97290;;;9.9;69.5
68489;BME280;55481;48.764;8.936;2023-03-20T18:58:54;97290;;;9.9;69.5
68489;BME280;55481;48.764;8.936;2023-03-20T19:01:25;97290;;;10;69
68489;BME280;55481;48.764;8.936;2023-03-20T19:04:02;97290;;;9.9;69
68489;BME280;55481;48.764;8.936;2023-03-20T19:11:48;97290;;;9.9;69
68489;BME280;55481;48.764;8.936;2023-03-20T19:14:05;97290;;;9.9;69
68489;BME280;55481;48.764;8.936;2023-03-20T19:19:12;97280;;;10;69
68489;BME280;55481;48.764;8.936;2023-03-20T19:21:36;97280;;;9.9;69
68489;BME280;55481;48.764;8.936;2023-03-20T19:24:07;97280;;;10;69
68489;BME280;55481;48.764;8.936;2023-03-20T19:29:03;97280;;;9.9;69
68489;BME280;55481;48.764;8.936;2023-03-20T19:34:11;97290;;;9.9;69.5
68489;BME280;55481;48.764;8.936;2023-03-20T19:36:42;97290;;;9.9;69
68489;BME280;55481;48.764;8.936;2023-03-20T19:41:35;97290;;;9.9;69
68489;BME280;55481;48.764;8.936;2023-03-20T19:44:06;97280;;;9.9;69
68489;BME280;55481;48.764;8.936;2023-03-20T19:46:37;97280;;;9.9;69
68489;BME280;55481;48.764;8.936;2023-03-20T19:51:46;97280;;;9.9;69
68489;BME280;55481;48.764;8.936;2023-03-20T19:54:22;97280;;;10;69
68489;BME280;55481;48.764;8.936;2023-03-20T19:59:16;97280;;;10;69
68489;BME280;55481;48.764;8.936;2023-03-20T20:01:46;97270;;;9.9;69
68489;BME280;55481;48.764;8.936;2023-03-20T20:04:17;97270;;;10;69
68489;BME280;55481;48.764;8.936;2023-03-20T20:09:11;97270;;;9.9;69
68489;BME280;55481;48.764;8.936;2023-03-20T20:11:41;97270;;;9.8;69.5
68489;BME280;55481;48.764;8.936;2023-03-20T20:14:12;97270;;;9.7;69.5
68489;BME280;55481;48.764;8.936;2023-03-20T20:16:43;97270;;;9.8;69.5
68489;BME280;55481;48.764;8.936;2023-03-20T20:19:21;97270;;;9.9;69
68489;BME280;55481;48.764;8.936;2023-03-20T20:21:57;97270;;;9.8;69.5
68489;BME280;55481;48.764;8.936;2023-03-20T20:26:47;97270;;;9.8;69
68489;BME280;55481;48.764;8.936;2023-03-20T20:29:16;97260;;;9.8;69
68489;BME280;55481;48.764;8.936;2023-03-20T20:31:47;97260;;;9.8;69.5
68489;BME280;55481;48.764;8.936;2023-03-20T20:34:18;97260;;;9.9;69
68489;BME280;55481;48.764;8.936;2023-03-20T20:39:13;97260;;;9.9;69